Portada
Imágenes satélite Pronóstico 10 díasClimaPredicción Marítima Ciclones Rayo AeropuertosFAQ Noticias Acerca
El tiempo : Europa África América del Norte América del Sur Asia Australia-Oceanía Otros
Idiomas Contacto

Valencia, España

Aeropuerto de Valencia

latitud: 39-30N, longitud: 000-28W, altitud: 69 m


METAR: LEVC 182300Z VRB01KT 9999 FEW040 14/13 Q1012 NOSIG
TAF: LEVC 182300Z 1900/1924 27005KT 9999 FEW040 TX24/1913Z TN11/1906Z BECMG 1911/1914 12009KT BECMG 1920/1923 VRB03KT

Hora: 01:32 (23:32 UTC)

Observación

El informe se hizo hace 32 minutos, a las 23:00 UTC
Viento 1 kt con dirección variable
Temperatura 14°C
Humedad 94%
Presión 1012 hPa
Visibilidad 10 km o más
Escasas nubes a una altura de 4000 ft

Cambiar las unidades

Pronóstico

El informe se hizo hace 32 minutos, a las 23:00 UTC
Pronóstico válido del 19 a las 00 UTC al 19 a las 24 UTC
Viento 5 kt del oeste
Visibilidad 10 km o más
Escasas nubes a una altura de 4000 ft
Evolucionando progresivamente
del 19 a las 11 UTC al 19 a las 14 UTC
Viento 9 kt del este-sureste
Evolucionando progresivamente
del 19 a las 20 UTC al 19 a las 23 UTC
Viento 3 kt con dirección variable
La información que se ofrece en estas páginas está sujeta a una cláusula de exención de responsabilidad
El tiempo : Europa África América del Norte América del Sur Asia Australia-Oceanía Otros
Imágenes satélite Pronóstico 10 díasClimaPredicción Marítima Ciclones Rayo AeropuertosFAQ Idiomas Contacto Noticias Acerca